createdAt,value
2018-04-26T00:01:19.154Z,89.30
2018-04-26T00:03:46.590Z,89.50
2018-04-26T00:06:14.068Z,89.70
2018-04-26T00:08:41.486Z,89.10
2018-04-26T00:11:08.916Z,89.20
2018-04-26T00:13:36.340Z,89.50
2018-04-26T00:16:04.527Z,87.50
2018-04-26T00:18:32.743Z,86.90
2018-04-26T00:21:00.175Z,86.90
2018-04-26T00:23:28.358Z,84.60
2018-04-26T00:25:55.791Z,84.50
2018-04-26T00:28:23.211Z,83.60
2018-04-26T00:30:51.405Z,81.00
2018-04-26T00:33:19.614Z,80.90
2018-04-26T00:35:47.034Z,80.90
2018-04-26T00:38:15.223Z,80.50
2018-04-26T00:40:43.419Z,80.20
2018-04-26T00:43:11.647Z,79.20
2018-04-26T00:45:39.073Z,79.20
2018-04-26T00:48:06.499Z,79.40
2018-04-26T00:50:33.931Z,78.50
2018-04-26T00:53:02.138Z,77.30
2018-04-26T00:55:29.602Z,77.30
2018-04-26T00:57:57.071Z,78.40
2018-04-26T01:00:24.498Z,80.50
2018-04-26T01:02:51.919Z,82.20
2018-04-26T01:05:19.382Z,82.60
2018-04-26T01:07:46.802Z,82.10
2018-04-26T01:10:14.326Z,80.20
2018-04-26T01:12:41.795Z,80.60
2018-04-26T01:15:09.220Z,80.60
2018-04-26T01:17:36.731Z,80.30
2018-04-26T01:20:04.210Z,80.00
2018-04-26T01:22:32.347Z,79.90
2018-04-26T01:24:59.775Z,79.00
2018-04-26T01:27:27.191Z,78.80
2018-04-26T01:29:54.619Z,78.80
2018-04-26T01:32:22.042Z,78.30
2018-04-26T01:34:50.255Z,78.00
2018-04-26T01:37:29.756Z,78.00
2018-04-26T01:39:57.191Z,78.10
2018-04-26T01:42:24.647Z,78.60
2018-04-26T01:44:52.076Z,78.80
2018-04-26T01:47:20.262Z,75.90
2018-04-26T01:49:47.767Z,75.80
2018-04-26T01:52:15.239Z,78.20
2018-04-26T01:54:42.674Z,78.20
2018-04-26T01:57:10.862Z,79.60
2018-04-26T01:59:38.282Z,79.60
2018-04-26T02:02:05.698Z,80.00
2018-04-26T02:04:33.886Z,79.50
2018-04-26T02:07:02.063Z,78.50
2018-04-26T02:09:29.575Z,78.50
2018-04-26T02:11:56.991Z,79.50
2018-04-26T02:14:24.520Z,79.20
2018-04-26T02:16:51.943Z,78.80
2018-04-26T02:19:19.454Z,79.00
2018-04-26T02:21:46.924Z,79.40
2018-04-26T02:24:14.336Z,80.10
2018-04-26T02:26:41.766Z,81.30
2018-04-26T02:29:09.240Z,81.80
2018-04-26T02:31:36.666Z,82.30
2018-04-26T02:34:04.174Z,82.70
2018-04-26T02:36:31.598Z,83.00
2018-04-26T02:38:59.013Z,83.60
2018-04-26T02:41:26.430Z,84.10
2018-04-26T02:43:53.847Z,84.60
2018-04-26T02:46:21.274Z,85.00
2018-04-26T02:48:48.787Z,85.10
2018-04-26T02:51:16.206Z,84.70
2018-04-26T02:53:43.618Z,84.30
2018-04-26T02:56:11.102Z,84.60
2018-04-26T02:58:38.566Z,84.70
2018-04-26T03:01:06.038Z,84.90
2018-04-26T03:03:33.453Z,84.90
2018-04-26T03:06:00.885Z,84.50
2018-04-26T03:08:28.295Z,84.20
2018-04-26T03:10:57.255Z,84.10
2018-04-26T03:13:24.666Z,84.10
2018-04-26T03:15:52.183Z,84.10
2018-04-26T03:18:19.655Z,84.60
2018-04-26T03:20:47.078Z,83.70
2018-04-26T03:23:14.490Z,84.50
2018-04-26T03:25:41.962Z,84.40
2018-04-26T03:28:09.440Z,84.80
2018-04-26T03:30:36.862Z,84.90
2018-04-26T03:33:04.379Z,85.20
2018-04-26T03:35:31.843Z,84.90
2018-04-26T03:37:59.314Z,85.50
2018-04-26T03:40:26.784Z,85.70
2018-04-26T03:42:54.203Z,85.70
2018-04-26T03:45:21.622Z,85.90
2018-04-26T03:47:49.034Z,85.20
2018-04-26T03:50:16.458Z,85.20
2018-04-26T03:52:43.875Z,85.20
2018-04-26T03:55:11.397Z,85.40
2018-04-26T03:57:38.806Z,85.50
2018-04-26T04:00:18.114Z,85.40
2018-04-26T04:06:14.739Z,86.00
2018-04-26T04:08:42.107Z,86.10
2018-04-26T04:11:09.525Z,86.50
2018-04-26T04:13:37.706Z,86.40
2018-04-26T04:16:05.902Z,87.00
2018-04-26T04:18:33.316Z,86.90
2018-04-26T04:21:00.759Z,87.20
2018-04-26T04:23:28.170Z,87.40
2018-04-26T04:25:55.590Z,87.80
2018-04-26T04:28:23.060Z,88.00
2018-04-26T04:30:50.559Z,88.30
2018-04-26T04:33:17.973Z,88.40
2018-04-26T04:35:46.187Z,88.30
2018-04-26T04:38:13.599Z,88.30
2018-04-26T04:40:41.018Z,88.50
2018-04-26T04:43:08.495Z,88.80
2018-04-26T04:45:35.969Z,88.60
2018-04-26T04:48:03.383Z,89.00
2018-04-26T04:50:30.902Z,88.90
2018-04-26T04:52:58.378Z,88.70
2018-04-26T04:55:25.842Z,88.90
2018-04-26T04:57:53.317Z,88.80
2018-04-26T05:00:20.730Z,89.10
2018-04-26T05:02:48.151Z,88.90
2018-04-26T05:05:15.562Z,89.00
2018-04-26T05:07:43.081Z,89.20
2018-04-26T05:10:10.494Z,88.80
2018-04-26T05:12:37.934Z,88.10
2018-04-26T05:15:05.355Z,88.30
2018-04-26T05:17:32.774Z,88.20
2018-04-26T05:20:00.191Z,87.90
2018-04-26T05:22:28.427Z,87.90
2018-04-26T05:24:55.850Z,87.90
2018-04-26T05:27:23.270Z,87.60
2018-04-26T05:29:50.695Z,88.40
2018-04-26T05:32:18.915Z,88.20
2018-04-26T05:34:46.336Z,87.80
2018-04-26T05:37:13.857Z,88.00
2018-04-26T05:39:41.327Z,88.10
2018-04-26T05:42:08.771Z,87.70
2018-04-26T05:44:36.985Z,86.70
2018-04-26T05:47:04.598Z,86.60
2018-04-26T05:49:32.030Z,86.80
2018-04-26T05:51:59.460Z,86.70
2018-04-26T05:54:26.970Z,85.90
2018-04-26T05:56:54.394Z,85.50
2018-04-26T05:59:21.814Z,85.50
2018-04-26T06:01:49.235Z,85.80
2018-04-26T06:04:16.743Z,84.90
2018-04-26T06:06:44.211Z,85.10
2018-04-26T06:09:11.622Z,85.20
2018-04-26T06:11:39.055Z,83.80
2018-04-26T06:14:06.530Z,82.90
2018-04-26T06:16:33.998Z,83.10
2018-04-26T06:19:01.422Z,83.10
2018-04-26T06:21:28.929Z,82.40
2018-04-26T06:23:56.365Z,81.00
2018-04-26T06:26:23.791Z,81.90
2018-04-26T06:28:51.243Z,80.60
2018-04-26T06:31:18.707Z,81.00
2018-04-26T06:33:46.121Z,81.60
2018-04-26T06:36:13.651Z,79.60
2018-04-26T06:38:41.067Z,79.90
2018-04-26T06:41:08.589Z,79.10
2018-04-26T06:43:36.058Z,79.60
2018-04-26T06:46:03.527Z,79.30
2018-04-26T06:48:30.999Z,78.80
2018-04-26T06:50:58.466Z,78.70
2018-04-26T06:53:26.018Z,77.70
2018-04-26T06:55:53.406Z,79.60
2018-04-26T06:58:20.854Z,78.50
2018-04-26T07:00:49.047Z,78.20
2018-04-26T07:03:17.240Z,78.00
2018-04-26T07:05:45.449Z,77.20
2018-04-26T07:08:13.615Z,75.90
2018-04-26T07:10:41.096Z,75.70
2018-04-26T07:13:08.518Z,77.70
2018-04-26T07:15:35.938Z,76.50
2018-04-26T07:18:03.502Z,75.80
2018-04-26T07:20:30.926Z,75.70
2018-04-26T07:22:58.443Z,75.60
2018-04-26T07:25:25.861Z,74.10
2018-04-26T07:27:53.382Z,73.70
2018-04-26T07:30:20.853Z,73.80
2018-04-26T07:32:48.327Z,73.30
2018-04-26T07:35:15.790Z,73.80
2018-04-26T07:37:43.219Z,72.90
2018-04-26T07:40:10.635Z,73.60
2018-04-26T07:42:38.063Z,71.80
2018-04-26T07:45:05.482Z,71.50
2018-04-26T07:47:32.951Z,70.50
2018-04-26T07:50:00.375Z,71.00
2018-04-26T07:52:28.574Z,69.70
2018-04-26T07:54:56.782Z,70.60
2018-04-26T07:57:24.208Z,70.60
2018-04-26T07:59:51.634Z,68.80
2018-04-26T08:02:19.098Z,69.20
2018-04-26T08:04:46.510Z,68.80
2018-04-26T08:07:14.746Z,68.80
2018-04-26T08:09:42.215Z,68.80
2018-04-26T08:12:09.684Z,68.50
2018-04-26T08:14:37.160Z,67.00
2018-04-26T08:17:04.687Z,67.50
2018-04-26T08:19:32.132Z,63.70
2018-04-26T08:21:59.534Z,61.90
2018-04-26T08:24:27.747Z,60.10
2018-04-26T08:26:55.162Z,60.00
2018-04-26T08:29:22.690Z,60.30
2018-04-26T08:31:50.159Z,60.50
2018-04-26T08:34:17.587Z,58.90
2018-04-26T08:36:45.159Z,60.50
2018-04-26T08:39:12.528Z,60.50
2018-04-26T08:41:40.758Z,58.60
2018-04-26T08:44:08.227Z,58.50
2018-04-26T08:46:35.708Z,58.80
2018-04-26T08:49:03.127Z,57.80
2018-04-26T08:51:30.635Z,57.80
2018-04-26T08:53:58.063Z,55.30
2018-04-26T08:56:25.491Z,56.30
2018-04-26T08:58:52.946Z,56.10
2018-04-26T09:01:20.414Z,55.70
2018-04-26T09:03:47.838Z,56.00
2018-04-26T09:06:15.265Z,56.50
2018-04-26T09:08:42.678Z,54.90
2018-04-26T09:11:10.874Z,55.40
2018-04-26T09:13:39.119Z,50.20
2018-04-26T09:16:06.557Z,49.50
2018-04-26T09:18:34.795Z,47.50
2018-04-26T09:21:02.222Z,47.60
2018-04-26T09:23:29.638Z,47.10
2018-04-26T09:25:57.070Z,47.60
2018-04-26T09:28:24.526Z,46.80
2018-04-26T09:30:51.962Z,47.80
2018-04-26T09:33:19.468Z,46.80
2018-04-26T09:35:46.905Z,48.60
2018-04-26T09:38:15.078Z,50.70
2018-04-26T09:40:42.599Z,50.80
2018-04-26T09:43:10.172Z,50.20
2018-04-26T09:45:38.362Z,46.30
2018-04-26T09:48:05.778Z,46.20
2018-04-26T09:50:33.206Z,45.90
2018-04-26T09:53:00.661Z,47.40
2018-04-26T09:55:28.166Z,47.10
2018-04-26T09:57:55.546Z,45.70
2018-04-26T10:00:27.853Z,47.10
2018-04-26T10:02:56.942Z,46.60
2018-04-26T10:05:30.019Z,46.50
2018-04-26T10:07:57.463Z,46.80
2018-04-26T10:10:24.878Z,45.60
2018-04-26T10:12:52.302Z,44.80
2018-04-26T10:15:19.723Z,45.00
2018-04-26T10:17:48.658Z,42.50
2018-04-26T10:20:16.844Z,42.00
2018-04-26T10:22:45.046Z,42.40
2018-04-26T10:25:12.466Z,42.40
2018-04-26T10:27:39.985Z,42.50
2018-04-26T10:30:07.407Z,42.10
2018-04-26T10:32:34.925Z,41.20
2018-04-26T10:35:02.352Z,41.20
2018-04-26T10:37:29.866Z,43.20
2018-04-26T10:39:57.346Z,40.00
2018-04-26T10:42:24.803Z,38.10
2018-04-26T10:44:52.227Z,39.20
2018-04-26T10:47:19.649Z,41.10
2018-04-26T10:49:47.118Z,38.80
2018-04-26T10:52:14.542Z,38.20
2018-04-26T10:54:41.957Z,37.30
2018-04-26T10:57:09.377Z,37.30
2018-04-26T10:59:36.802Z,38.70
2018-04-26T11:02:04.231Z,39.10
2018-04-26T11:04:32.414Z,36.80
2018-04-26T11:07:00.602Z,37.40
2018-04-26T11:09:28.817Z,38.40
2018-04-26T11:11:56.251Z,38.40
2018-04-26T11:14:23.754Z,39.50
2018-04-26T11:16:51.230Z,37.90
2018-04-26T11:19:18.653Z,38.10
2018-04-26T11:21:46.169Z,38.80
2018-04-26T11:24:13.643Z,37.30
2018-04-26T11:26:41.058Z,38.40
2018-04-26T11:29:09.256Z,38.50
2018-04-26T11:31:36.682Z,38.50
2018-04-26T11:34:04.135Z,37.80
2018-04-26T11:36:31.599Z,36.10
2018-04-26T11:38:59.929Z,37.30
2018-04-26T11:41:27.351Z,36.80
2018-04-26T11:43:54.771Z,36.20
2018-04-26T11:46:22.232Z,37.30
2018-04-26T11:48:49.643Z,36.80
2018-04-26T11:51:17.821Z,34.20
2018-04-26T11:53:46.022Z,35.40
2018-04-26T11:56:14.295Z,36.50
2018-04-26T11:58:41.710Z,36.50
2018-04-26T12:01:09.166Z,36.00
2018-04-26T12:03:36.598Z,35.20
2018-04-26T12:06:04.013Z,34.60
2018-04-26T12:08:31.478Z,32.60
2018-04-26T12:10:58.955Z,33.00
2018-04-26T12:13:26.418Z,31.80
2018-04-26T12:15:53.891Z,33.10
2018-04-26T12:18:21.327Z,33.40
2018-04-26T12:20:49.546Z,34.00
2018-04-26T12:23:17.014Z,34.00
2018-04-26T12:25:44.482Z,33.70
2018-04-26T12:28:11.955Z,33.70
2018-04-26T12:30:39.370Z,33.80
2018-04-26T12:33:06.894Z,34.90
2018-04-26T12:35:34.314Z,36.10
2018-04-26T12:38:02.611Z,35.90
2018-04-26T12:40:32.259Z,34.40
2018-04-26T12:42:59.759Z,35.20
2018-04-26T12:45:27.167Z,33.60
2018-04-26T12:47:54.594Z,32.10
2018-04-26T12:50:22.029Z,33.90
2018-04-26T12:52:49.433Z,33.10
2018-04-26T12:55:16.853Z,33.20
2018-04-26T12:57:45.071Z,33.60
2018-04-26T13:00:12.487Z,33.60
2018-04-26T13:02:40.679Z,34.50
2018-04-26T13:05:08.199Z,34.10
2018-04-26T13:07:35.675Z,33.70
2018-04-26T13:10:03.133Z,32.40
2018-04-26T13:12:30.559Z,31.40
2018-04-26T13:14:57.982Z,31.20
2018-04-26T13:17:25.456Z,32.00
2018-04-26T13:19:52.889Z,31.20
2018-04-26T13:22:21.074Z,30.80
2018-04-26T13:24:49.262Z,31.10
2018-04-26T13:27:17.447Z,30.90
2018-04-26T13:29:45.650Z,30.90
2018-04-26T13:32:13.818Z,32.00
2018-04-26T13:34:42.010Z,31.30
2018-04-26T13:37:10.197Z,30.20
2018-04-26T13:39:38.465Z,32.40
2018-04-26T13:42:05.880Z,32.40
2018-04-26T13:44:33.305Z,31.80
2018-04-26T13:47:00.727Z,32.00
2018-04-26T13:49:28.200Z,31.60
2018-04-26T13:51:55.664Z,32.10
2018-04-26T13:54:23.097Z,31.50
2018-04-26T13:56:51.283Z,31.80
2018-04-26T13:59:19.469Z,32.70
2018-04-26T14:01:47.686Z,31.10
2018-04-26T14:04:15.158Z,31.00
2018-04-26T14:06:42.574Z,32.00
2018-04-26T14:09:10.102Z,33.00
2018-04-26T14:11:37.672Z,31.20
2018-04-26T14:14:05.855Z,30.40
2018-04-26T14:16:33.326Z,30.40
2018-04-26T14:19:00.795Z,30.30
2018-04-26T14:21:28.270Z,30.00
2018-04-26T14:23:55.693Z,28.80
2018-04-26T14:26:23.131Z,31.70
2018-04-26T14:28:52.115Z,30.00
2018-04-26T14:31:19.535Z,30.00
2018-04-26T14:33:47.054Z,29.90
2018-04-26T14:36:14.518Z,31.50
2018-04-26T14:38:41.951Z,30.20
2018-04-26T14:41:09.371Z,30.80
2018-04-26T14:43:36.827Z,30.00
2018-04-26T14:46:04.262Z,30.70
2018-04-26T14:48:32.494Z,30.00
2018-04-26T14:50:59.915Z,30.00
2018-04-26T14:53:27.424Z,30.40
2018-04-26T14:55:54.892Z,28.50
2018-04-26T14:58:22.322Z,28.80
2018-04-26T15:00:50.554Z,28.90
2018-04-26T15:03:18.022Z,28.90
2018-04-26T15:05:45.438Z,29.20
2018-04-26T15:08:12.959Z,31.80
2018-04-26T15:10:40.378Z,29.80
2018-04-26T15:13:09.337Z,29.30
2018-04-26T15:15:36.807Z,29.30
2018-04-26T15:18:04.272Z,28.80
2018-04-26T15:20:31.694Z,29.60
2018-04-26T15:22:59.223Z,29.50
2018-04-26T15:25:26.634Z,30.30
2018-04-26T15:27:54.154Z,29.10
2018-04-26T15:30:21.629Z,29.00
2018-04-26T15:32:49.090Z,28.40
2018-04-26T15:35:16.559Z,29.30
2018-04-26T15:37:44.039Z,28.20
2018-04-26T15:40:11.462Z,27.90
2018-04-26T15:42:39.686Z,28.70
2018-04-26T15:45:07.159Z,28.20
2018-04-26T15:47:34.629Z,28.10
2018-04-26T15:50:02.106Z,28.00
2018-04-26T15:52:47.134Z,28.40
2018-04-26T15:55:26.535Z,28.00
2018-04-26T16:01:12.665Z,28.20
2018-04-26T16:03:52.130Z,29.40
2018-04-26T16:06:32.403Z,28.00
2018-04-26T16:09:11.859Z,28.10
2018-04-26T16:11:51.410Z,27.60
2018-04-26T16:14:33.842Z,28.40
2018-04-26T16:17:31.681Z,29.30
2018-04-26T16:20:18.567Z,29.10
2018-04-26T16:23:03.689Z,29.00
2018-04-26T16:25:43.995Z,31.00
2018-04-26T16:28:29.278Z,31.00
2018-04-26T16:31:14.433Z,29.10
2018-04-26T16:33:53.767Z,30.50
2018-04-26T16:36:33.170Z,32.30
2018-04-26T16:39:17.419Z,31.10
2018-04-26T16:41:45.622Z,36.80
2018-04-26T16:44:13.047Z,36.80
2018-04-26T16:46:40.563Z,34.20
2018-04-26T16:49:08.053Z,32.50
2018-04-26T16:51:35.457Z,34.30
2018-04-26T16:54:02.883Z,34.70
2018-04-26T16:56:30.306Z,33.60
2018-04-26T16:58:59.543Z,35.10
2018-04-26T17:01:26.974Z,35.00
2018-04-26T17:03:55.930Z,35.00
2018-04-26T17:06:23.355Z,35.00
2018-04-26T17:08:50.867Z,37.30
2018-04-26T17:11:18.295Z,37.80
2018-04-26T17:13:45.802Z,37.90
2018-04-26T17:16:13.274Z,37.30
2018-04-26T17:18:40.696Z,38.80
2018-04-26T17:21:08.218Z,37.60
2018-04-26T17:23:35.684Z,38.60
2018-04-26T17:26:03.110Z,37.60
2018-04-26T17:28:30.531Z,39.70
2018-04-26T17:30:57.954Z,40.30
2018-04-26T17:33:26.185Z,41.40
2018-04-26T17:35:54.370Z,40.70
2018-04-26T17:38:21.831Z,40.70
2018-04-26T17:40:49.267Z,40.80
2018-04-26T17:43:16.778Z,42.50
2018-04-26T17:45:44.253Z,42.80
2018-04-26T17:48:11.710Z,43.40
2018-04-26T17:50:39.183Z,44.30
2018-04-26T17:53:06.650Z,44.00
2018-04-26T17:55:34.066Z,43.40
2018-04-26T17:58:01.488Z,44.70
2018-04-26T18:00:28.962Z,43.80
2018-04-26T18:02:56.432Z,43.70
2018-04-26T18:05:23.886Z,45.50
2018-04-26T18:07:51.314Z,44.20
2018-04-26T18:10:18.736Z,43.80
2018-04-26T18:12:46.167Z,46.10
2018-04-26T18:15:13.686Z,47.30
2018-04-26T18:17:41.150Z,44.00
2018-04-26T18:20:08.909Z,46.30
2018-04-26T18:22:36.088Z,48.10
2018-04-26T18:25:03.553Z,45.60
2018-04-26T18:27:31.030Z,50.40
2018-04-26T18:29:58.454Z,47.90
2018-04-26T18:32:25.882Z,50.60
2018-04-26T18:34:53.317Z,47.70
2018-04-26T18:37:21.502Z,46.60
2018-04-26T18:39:49.677Z,45.60
2018-04-26T18:42:17.899Z,45.40
2018-04-26T18:44:45.331Z,45.40
2018-04-26T18:47:13.510Z,44.90
2018-04-26T18:49:41.738Z,46.50
2018-04-26T18:52:09.158Z,45.80
2018-04-26T18:54:37.345Z,49.00
2018-04-26T18:57:04.950Z,48.90
2018-04-26T18:59:32.296Z,48.50
2018-04-26T19:01:59.719Z,49.30
2018-04-26T19:04:27.174Z,49.30
2018-04-26T19:06:54.595Z,49.50
2018-04-26T19:09:23.568Z,49.00
2018-04-26T19:11:50.971Z,49.00
2018-04-26T19:14:19.922Z,50.10
2018-04-26T19:16:47.387Z,50.00
2018-04-26T19:19:14.861Z,50.90
2018-04-26T19:21:42.282Z,50.80
2018-04-26T19:24:09.698Z,50.50
2018-04-26T19:26:37.125Z,50.40
2018-04-26T19:29:04.634Z,51.20
2018-04-26T19:31:32.928Z,51.40
2018-04-26T19:34:00.414Z,52.40
2018-04-26T19:36:28.588Z,52.60
2018-04-26T19:38:56.006Z,52.70
2018-04-26T19:41:23.430Z,52.40
2018-04-26T19:43:50.886Z,53.00
2018-04-26T19:46:18.310Z,53.80
2018-04-26T19:48:45.826Z,53.50
2018-04-26T19:51:13.250Z,54.00
2018-04-26T19:53:40.766Z,54.30
2018-04-26T19:56:08.193Z,55.20
2018-04-26T19:58:36.431Z,55.20
2018-04-26T20:01:03.869Z,55.20
2018-04-26T20:03:32.078Z,56.10
2018-04-26T20:05:59.498Z,56.10
2018-04-26T20:08:26.923Z,55.60
2018-04-26T20:10:54.389Z,55.50
2018-04-26T20:13:21.823Z,56.20
2018-04-26T20:15:50.050Z,57.50
2018-04-26T20:18:17.481Z,57.50
2018-04-26T20:20:45.675Z,58.30
2018-04-26T20:23:13.174Z,57.60
2018-04-26T20:25:40.650Z,57.90
2018-04-26T20:28:08.069Z,58.20
2018-04-26T20:30:35.492Z,58.30
2018-04-26T20:33:02.922Z,58.10
2018-04-26T20:35:31.106Z,58.80
2018-04-26T20:37:59.318Z,58.90
2018-04-26T20:40:26.791Z,58.80
2018-04-26T20:42:54.209Z,59.20
2018-04-26T20:45:21.643Z,59.60
2018-04-26T20:47:49.060Z,60.00
2018-04-26T20:50:17.251Z,60.80
2018-04-26T20:52:45.478Z,61.80
2018-04-26T20:55:12.910Z,61.80
2018-04-26T20:57:41.100Z,62.30
2018-04-26T21:00:09.322Z,62.90
2018-04-26T21:02:36.737Z,62.80
2018-04-26T21:05:04.168Z,63.20
2018-04-26T21:07:31.582Z,63.20
2018-04-26T21:09:59.777Z,64.00
2018-04-26T21:12:27.966Z,64.10
2018-04-26T21:14:56.158Z,64.10
2018-04-26T21:17:24.342Z,64.20
2018-04-26T21:19:52.557Z,64.90
2018-04-26T21:22:19.974Z,64.80
2018-04-26T21:24:47.504Z,65.70
2018-04-26T21:27:14.916Z,66.50
2018-04-26T21:29:42.441Z,68.00
2018-04-26T21:32:09.910Z,68.60
2018-04-26T21:34:37.379Z,69.40
2018-04-26T21:37:04.811Z,70.50
2018-04-26T21:39:33.002Z,71.00
2018-04-26T21:42:00.422Z,71.00
2018-04-26T21:44:27.847Z,71.20
2018-04-26T21:46:56.034Z,71.90
2018-04-26T21:49:23.758Z,72.80
2018-04-26T21:51:57.061Z,72.80
2018-04-26T21:54:31.047Z,73.50
2018-04-26T21:57:04.966Z,73.80
2018-04-26T21:59:38.906Z,73.10
2018-04-26T22:02:12.078Z,73.10
2018-04-26T22:04:45.913Z,73.20
2018-04-26T22:07:14.107Z,74.00
2018-04-26T22:09:41.527Z,74.00
2018-04-26T22:12:08.955Z,74.10
2018-04-26T22:14:36.371Z,74.00
2018-04-26T22:17:03.894Z,74.00
2018-04-26T22:19:31.365Z,74.60
2018-04-26T22:21:58.792Z,74.30
2018-04-26T22:24:27.739Z,74.90
2018-04-26T22:26:55.166Z,74.90
2018-04-26T22:29:22.582Z,75.10
2018-04-26T22:31:50.007Z,75.90
2018-04-26T22:34:17.518Z,77.00
2018-04-26T22:36:44.995Z,76.20
2018-04-26T22:39:12.414Z,76.90
2018-04-26T22:41:39.927Z,76.80
2018-04-26T22:44:07.398Z,77.00
2018-04-26T22:46:34.967Z,77.80
2018-04-26T22:49:02.435Z,78.00
2018-04-26T22:51:29.915Z,78.10
2018-04-26T22:53:57.334Z,78.30
2018-04-26T22:56:24.753Z,78.20
2018-04-26T22:58:52.215Z,78.30
2018-04-26T23:01:19.634Z,78.30
2018-04-26T23:03:47.153Z,78.40
2018-04-26T23:06:14.626Z,78.50
2018-04-26T23:08:42.057Z,78.80
2018-04-26T23:11:09.473Z,78.60
2018-04-26T23:13:36.930Z,79.40
2018-04-26T23:16:04.407Z,79.00
2018-04-26T23:18:31.826Z,80.30
2018-04-26T23:20:59.238Z,80.10
2018-04-26T23:23:26.658Z,80.70
2018-04-26T23:25:54.179Z,81.60
2018-04-26T23:28:21.602Z,82.20
2018-04-26T23:30:49.019Z,81.70
2018-04-26T23:33:16.450Z,82.00
2018-04-26T23:35:43.869Z,82.10
2018-04-26T23:38:11.295Z,82.10
2018-04-26T23:40:39.470Z,82.50
2018-04-26T23:43:06.882Z,82.50
2018-04-26T23:45:34.309Z,82.60
2018-04-26T23:48:01.815Z,82.40
2018-04-26T23:50:29.287Z,82.60
2018-04-26T23:52:56.694Z,82.40
2018-04-26T23:55:24.123Z,82.50
2018-04-26T23:57:51.596Z,82.60
